createdAt,value
2024-05-09T00:00:40.026Z,35.54
2024-05-09T00:03:09.021Z,35.64
2024-05-09T00:05:37.253Z,35.61
2024-05-09T00:08:04.706Z,35.68
2024-05-09T00:10:36.487Z,35.68
2024-05-09T00:13:09.146Z,35.70
2024-05-09T00:15:37.119Z,35.85
2024-05-09T00:18:06.470Z,35.98
2024-05-09T00:20:38.822Z,36.01
2024-05-09T00:23:09.468Z,36.08
2024-05-09T00:25:37.840Z,36.11
2024-05-09T00:28:05.183Z,36.25
2024-05-09T00:30:35.317Z,36.48
2024-05-09T00:33:08.170Z,36.63
2024-05-09T00:35:36.334Z,36.63
2024-05-09T00:38:03.479Z,36.60
2024-05-09T00:40:41.512Z,36.65
2024-05-09T00:43:14.587Z,36.53
2024-05-09T00:45:42.162Z,36.45
2024-05-09T00:48:13.398Z,36.58
2024-05-09T00:50:44.231Z,36.58
2024-05-09T00:53:12.684Z,36.61
2024-05-09T00:55:39.981Z,36.62
2024-05-09T00:58:08.476Z,36.73
2024-05-09T01:00:39.375Z,36.76
2024-05-09T01:03:10.529Z,36.78
2024-05-09T01:05:39.591Z,36.98
2024-05-09T01:08:08.412Z,37.03
2024-05-09T01:10:37.405Z,36.99
2024-05-09T01:13:04.966Z,37.19
2024-05-09T01:15:31.917Z,37.38
2024-05-09T01:18:01.510Z,37.33
2024-05-09T01:20:39.107Z,37.51
2024-05-09T01:23:10.054Z,37.47
2024-05-09T01:25:37.300Z,37.37
2024-05-09T01:28:04.136Z,37.57
2024-05-09T01:30:35.486Z,37.83
2024-05-09T01:33:06.466Z,37.88
2024-05-09T01:35:35.106Z,37.94
2024-05-09T01:38:01.820Z,38.10
2024-05-09T01:40:37.069Z,38.39
2024-05-09T01:43:06.739Z,38.49
2024-05-09T01:45:33.521Z,38.53
2024-05-09T01:48:00.475Z,38.56
2024-05-09T01:52:57.071Z,38.93
2024-05-09T01:55:23.860Z,39.31
2024-05-09T01:57:50.472Z,39.44
2024-05-09T02:00:22.452Z,39.84
2024-05-09T02:02:57.792Z,39.83
2024-05-09T02:05:24.618Z,39.85
2024-05-09T02:07:51.144Z,40.02
2024-05-09T02:10:23.487Z,39.95
2024-05-09T02:12:56.819Z,39.87
2024-05-09T02:15:23.339Z,39.91
2024-05-09T02:17:50.607Z,40.01
2024-05-09T02:20:26.769Z,39.98
2024-05-09T02:22:57.333Z,40.07
2024-05-09T02:25:26.919Z,39.91
2024-05-09T02:27:54.576Z,39.92
2024-05-09T02:30:29.988Z,39.82
2024-05-09T02:33:05.275Z,39.71
2024-05-09T02:35:32.269Z,39.75
2024-05-09T02:37:59.890Z,39.71
2024-05-09T02:40:35.546Z,39.54
2024-05-09T02:43:05.386Z,39.53
2024-05-09T02:45:32.209Z,39.54
2024-05-09T02:47:58.985Z,39.62
2024-05-09T02:50:33.800Z,39.88
2024-05-09T02:53:05.096Z,40.02
2024-05-09T02:55:31.761Z,40.19
2024-05-09T02:57:59.585Z,40.34
2024-05-09T03:00:34.730Z,40.30
2024-05-09T03:03:07.635Z,40.34
2024-05-09T03:05:34.947Z,40.33
2024-05-09T03:08:01.922Z,40.38
2024-05-09T03:10:29.332Z,40.68
2024-05-09T03:13:09.183Z,40.58
2024-05-09T03:15:36.182Z,40.56
2024-05-09T03:18:03.804Z,40.43
2024-05-09T03:20:34.632Z,40.53
2024-05-09T03:23:04.499Z,40.62
2024-05-09T03:25:31.659Z,40.68
2024-05-09T03:27:58.260Z,40.60
2024-05-09T03:30:36.138Z,40.93
2024-05-09T03:33:12.533Z,40.99
2024-05-09T03:35:40.223Z,40.92
2024-05-09T03:38:07.021Z,40.88
2024-05-09T03:40:33.606Z,40.76
2024-05-09T03:43:00.495Z,40.65
2024-05-09T03:45:26.949Z,40.63
2024-05-09T03:47:53.784Z,40.48
2024-05-09T03:50:29.420Z,40.45
2024-05-09T03:53:00.846Z,40.71
2024-05-09T03:55:27.844Z,40.88
2024-05-09T03:57:54.735Z,40.91
2024-05-09T04:00:30.562Z,40.88
2024-05-09T04:03:05.105Z,40.59
2024-05-09T04:05:32.679Z,40.34
2024-05-09T04:07:59.443Z,40.33
2024-05-09T04:10:32.815Z,40.43
2024-05-09T04:13:01.166Z,40.22
2024-05-09T04:15:28.170Z,40.12
2024-05-09T04:17:55.098Z,40.06
2024-05-09T04:20:32.951Z,39.77
2024-05-09T04:23:06.265Z,38.95
2024-05-09T04:25:33.283Z,37.97
2024-05-09T04:27:59.948Z,36.52
2024-05-09T04:30:35.978Z,35.30
2024-05-09T04:33:07.069Z,34.51
2024-05-09T04:35:35.324Z,33.92
2024-05-09T04:38:02.670Z,33.57
2024-05-09T04:40:34.065Z,33.29
2024-05-09T04:43:03.870Z,32.74
2024-05-09T04:45:30.901Z,32.25
2024-05-09T04:47:58.226Z,31.91
2024-05-09T04:50:33.399Z,31.50
2024-05-09T04:53:04.921Z,31.18
2024-05-09T04:55:32.472Z,30.96
2024-05-09T04:57:59.565Z,30.64
2024-05-09T05:00:34.168Z,30.63
2024-05-09T05:03:10.147Z,30.42
2024-05-09T05:05:42.284Z,30.12
2024-05-09T05:08:13.213Z,29.70
2024-05-09T05:10:40.530Z,29.75
2024-05-09T05:13:17.661Z,29.59
2024-05-09T05:15:46.044Z,29.28
2024-05-09T05:18:12.611Z,29.02
2024-05-09T05:20:39.182Z,29.04
2024-05-09T05:23:12.038Z,29.26
2024-05-09T05:25:39.027Z,28.69
2024-05-09T05:28:05.966Z,28.59
2024-05-09T05:30:34.754Z,28.10
2024-05-09T05:33:02.103Z,28.29
2024-05-09T05:35:28.916Z,28.32
2024-05-09T05:37:55.543Z,28.30
2024-05-09T05:40:28.665Z,28.26
2024-05-09T05:43:08.182Z,28.13
2024-05-09T05:45:35.001Z,27.78
2024-05-09T05:48:04.298Z,27.79
2024-05-09T05:50:35.928Z,27.74
2024-05-09T05:53:06.892Z,27.76
2024-05-09T05:55:33.932Z,27.84
2024-05-09T05:58:01.663Z,27.37
2024-05-09T06:00:34.885Z,27.05
2024-05-09T06:03:05.409Z,27.02
2024-05-09T06:05:32.502Z,26.97
2024-05-09T06:07:59.737Z,26.63
2024-05-09T06:10:34.847Z,26.33
2024-05-09T06:13:05.671Z,26.36
2024-05-09T06:15:32.142Z,26.44
2024-05-09T06:17:59.228Z,26.31
2024-05-09T06:20:34.631Z,26.54
2024-05-09T06:23:04.510Z,26.77
2024-05-09T06:25:31.876Z,26.67
2024-05-09T06:28:00.081Z,26.76
2024-05-09T06:30:35.307Z,26.40
2024-05-09T06:33:07.180Z,26.40
2024-05-09T06:35:34.291Z,26.34
2024-05-09T06:38:01.359Z,26.61
2024-05-09T06:40:36.297Z,26.27
2024-05-09T06:43:09.980Z,26.34
2024-05-09T06:45:36.753Z,26.20
2024-05-09T06:48:03.424Z,25.58
2024-05-09T06:50:36.844Z,25.45
2024-05-09T06:53:04.968Z,25.86
2024-05-09T06:55:31.470Z,25.85
2024-05-09T06:57:58.260Z,25.96
2024-05-09T07:00:30.904Z,25.86
2024-05-09T07:03:09.766Z,25.77
2024-05-09T07:05:36.952Z,25.30
2024-05-09T07:08:04.384Z,25.55
2024-05-09T07:10:35.016Z,25.41
2024-05-09T07:13:02.580Z,25.46
2024-05-09T07:15:29.427Z,26.08
2024-05-09T07:17:56.091Z,26.30
2024-05-09T07:20:31.854Z,26.27
2024-05-09T07:23:04.835Z,25.89
2024-05-09T07:25:31.559Z,25.39
2024-05-09T07:27:58.222Z,25.60
2024-05-09T07:30:32.681Z,25.33
2024-05-09T07:33:01.407Z,25.13
2024-05-09T07:35:28.946Z,24.56
2024-05-09T07:37:55.594Z,24.31
2024-05-09T07:40:31.585Z,24.34
2024-05-09T07:43:06.633Z,24.22
2024-05-09T07:52:23.430Z,23.73
2024-05-09T07:53:38.526Z,23.12
2024-05-09T07:56:06.835Z,23.30
2024-05-09T07:58:33.499Z,23.65
2024-05-09T08:01:00.063Z,23.87
2024-05-09T08:03:26.882Z,24.09
2024-05-09T08:05:54.398Z,23.65
2024-05-09T08:08:20.914Z,23.70
2024-05-09T08:10:47.646Z,24.03
2024-05-09T08:13:14.411Z,23.97
2024-05-09T08:15:41.433Z,23.77
2024-05-09T08:18:11.319Z,23.46
2024-05-09T08:20:38.766Z,23.58
2024-05-09T08:23:05.691Z,23.56
2024-05-09T08:25:32.114Z,23.34
2024-05-09T08:27:59.056Z,23.79
2024-05-09T08:30:32.798Z,24.40
2024-05-09T08:33:04.268Z,24.34
2024-05-09T08:35:31.279Z,24.56
2024-05-09T08:37:57.868Z,24.19
2024-05-09T08:40:31.071Z,24.58
2024-05-09T08:43:04.478Z,24.09
2024-05-09T08:45:34.540Z,23.69
2024-05-09T08:48:05.431Z,23.49
2024-05-09T08:50:38.474Z,22.64
2024-05-09T08:53:06.962Z,21.99
2024-05-09T08:55:33.620Z,21.45
2024-05-09T08:58:02.962Z,21.97
2024-05-09T09:00:36.747Z,22.76
2024-05-09T09:09:43.478Z,22.65
2024-05-09T09:12:12.210Z,23.19
2024-05-09T09:14:38.964Z,23.01
2024-05-09T09:17:15.826Z,23.22
2024-05-09T09:19:43.407Z,23.37
2024-05-09T09:22:10.319Z,22.92
2024-05-09T09:24:36.977Z,23.65
2024-05-09T09:27:04.026Z,23.28
2024-05-09T09:29:31.013Z,23.39
2024-05-09T09:32:03.494Z,23.54
2024-05-09T09:34:31.948Z,23.28
2024-05-09T09:37:01.694Z,22.74
2024-05-09T09:39:31.669Z,22.85
2024-05-09T09:41:59.437Z,22.87
2024-05-09T09:44:26.709Z,23.23
2024-05-09T09:46:58.123Z,23.24
2024-05-09T09:49:24.975Z,22.92
2024-05-09T09:51:51.711Z,22.42
2024-05-09T09:54:19.462Z,22.05
2024-05-09T09:56:49.900Z,22.37
2024-05-09T09:59:16.689Z,23.06
2024-05-09T10:01:45.513Z,23.19
2024-05-09T10:04:15.576Z,22.72
2024-05-09T10:06:56.486Z,23.54
2024-05-09T10:09:23.476Z,23.65
2024-05-09T10:11:54.438Z,22.95
2024-05-09T10:14:25.094Z,22.52
2024-05-09T10:16:51.531Z,22.51
2024-05-09T10:19:28.238Z,22.60
2024-05-09T10:22:05.795Z,22.63
2024-05-09T10:24:53.023Z,22.12
2024-05-09T10:27:30.143Z,22.67
2024-05-09T10:29:58.907Z,22.22
2024-05-09T10:32:27.919Z,22.16
2024-05-09T10:35:01.540Z,21.52
2024-05-09T10:37:29.033Z,21.89
2024-05-09T10:39:58.228Z,21.45
2024-05-09T10:42:26.181Z,21.62
2024-05-09T10:44:53.230Z,22.26
2024-05-09T10:47:20.569Z,21.70
2024-05-09T10:49:47.985Z,21.78
2024-05-09T10:52:14.845Z,22.11
2024-05-09T10:54:41.489Z,21.80
2024-05-09T10:57:08.022Z,21.27
2024-05-09T11:02:35.567Z,23.67
2024-05-09T11:05:02.355Z,22.74
2024-05-09T11:07:29.785Z,22.56
2024-05-09T11:09:56.624Z,21.87
2024-05-09T11:12:24.775Z,21.79
2024-05-09T11:14:54.688Z,22.51
2024-05-09T11:17:21.777Z,22.15
2024-05-09T11:19:50.619Z,21.71
2024-05-09T11:22:17.399Z,21.36
2024-05-09T11:24:44.048Z,21.25
2024-05-09T11:27:10.758Z,21.57
2024-05-09T11:29:40.751Z,22.50
2024-05-09T11:32:12.125Z,22.28
2024-05-09T11:34:38.962Z,21.78
2024-05-09T11:37:05.658Z,21.61
2024-05-09T11:39:32.235Z,22.44
2024-05-09T11:41:58.872Z,22.61
2024-05-09T11:44:26.578Z,22.38
2024-05-09T11:46:53.852Z,22.27
2024-05-09T11:49:23.160Z,21.75
2024-05-09T11:51:51.509Z,22.16
2024-05-09T11:54:17.999Z,21.74
2024-05-09T11:56:44.456Z,21.02
2024-05-09T11:59:11.398Z,21.09
2024-05-09T12:01:37.973Z,21.27
2024-05-09T12:04:05.113Z,21.59
2024-05-09T12:06:32.070Z,21.96
2024-05-09T12:08:58.807Z,22.35
2024-05-09T12:11:25.390Z,21.86
2024-05-09T12:13:51.824Z,21.30
2024-05-09T12:16:18.397Z,21.92
2024-05-09T12:18:44.882Z,21.93
2024-05-09T12:21:11.361Z,21.97
2024-05-09T12:23:38.628Z,21.64
2024-05-09T12:26:06.168Z,21.33
2024-05-09T12:28:32.878Z,21.23
2024-05-09T12:30:59.600Z,20.83
2024-05-09T12:33:26.144Z,20.66
2024-05-09T12:35:52.704Z,21.19
2024-05-09T12:38:19.120Z,21.63
2024-05-09T12:40:45.814Z,22.00
2024-05-09T12:43:12.417Z,21.91
2024-05-09T12:45:40.055Z,21.97
2024-05-09T12:48:08.237Z,22.39
2024-05-09T12:50:35.968Z,22.31
2024-05-09T12:53:04.023Z,22.20
2024-05-09T12:55:41.402Z,21.92
2024-05-09T12:58:19.111Z,22.20
2024-05-09T13:00:46.586Z,22.26
2024-05-09T13:03:13.885Z,22.34
2024-05-09T13:05:41.110Z,21.89
2024-05-09T13:08:07.851Z,21.48
2024-05-09T13:10:34.736Z,22.10
2024-05-09T13:13:02.206Z,21.98
2024-05-09T13:15:31.122Z,21.71
2024-05-09T13:18:01.660Z,21.26
2024-05-09T13:20:33.491Z,21.42
2024-05-09T13:23:07.605Z,21.38
2024-05-09T13:25:35.350Z,21.40
2024-05-09T13:28:03.514Z,21.65
2024-05-09T13:30:38.825Z,21.72
2024-05-09T13:33:12.205Z,21.64
2024-05-09T13:35:45.732Z,21.66
2024-05-09T13:38:16.490Z,22.33
2024-05-09T13:40:42.991Z,21.51
2024-05-09T13:43:09.462Z,21.32
2024-05-09T13:45:36.176Z,21.31
2024-05-09T13:48:03.715Z,21.75
2024-05-09T13:50:34.737Z,21.89
2024-05-09T13:53:05.614Z,21.97
2024-05-09T13:55:33.350Z,21.91
2024-05-09T13:58:00.405Z,21.47
2024-05-09T14:00:38.059Z,21.63
2024-05-09T14:03:11.478Z,21.56
2024-05-09T14:05:38.219Z,21.50
2024-05-09T14:08:05.515Z,21.65
2024-05-09T14:10:32.726Z,21.46
2024-05-09T14:13:00.740Z,21.46
2024-05-09T14:15:27.544Z,21.63
2024-05-09T14:17:54.800Z,22.01
2024-05-09T14:22:50.907Z,21.73
2024-05-09T14:25:17.602Z,21.71
2024-05-09T14:27:44.374Z,21.51
2024-05-09T14:30:18.232Z,21.55
2024-05-09T14:32:52.460Z,21.31
2024-05-09T14:35:19.696Z,21.25
2024-05-09T14:37:46.203Z,21.03
2024-05-09T14:40:29.827Z,21.29
2024-05-09T14:43:03.136Z,21.47
2024-05-09T14:45:29.971Z,21.54
2024-05-09T14:47:56.817Z,21.29
2024-05-09T14:50:28.302Z,21.34
2024-05-09T14:53:01.794Z,21.40
2024-05-09T14:55:28.418Z,21.76
2024-05-09T14:57:55.386Z,22.06
2024-05-09T15:00:28.640Z,22.35
2024-05-09T15:02:59.543Z,22.37
2024-05-09T15:05:26.174Z,21.84
2024-05-09T15:07:52.796Z,21.92
2024-05-09T15:10:26.889Z,21.74
2024-05-09T15:13:00.540Z,21.57
2024-05-09T15:15:27.058Z,21.54
2024-05-09T15:17:54.826Z,21.74
2024-05-09T15:20:30.403Z,21.80
2024-05-09T15:23:00.888Z,21.70
2024-05-09T15:25:27.852Z,21.60
2024-05-09T15:27:54.853Z,21.81
2024-05-09T15:30:29.834Z,21.94
2024-05-09T15:32:59.108Z,22.12
2024-05-09T15:35:25.669Z,22.23
2024-05-09T15:37:52.226Z,21.98
2024-05-09T15:40:26.822Z,21.81
2024-05-09T15:43:02.427Z,22.22
2024-05-09T15:45:29.370Z,22.35
2024-05-09T15:47:56.932Z,21.85
2024-05-09T15:50:35.145Z,21.93
2024-05-09T15:53:06.304Z,21.97
2024-05-09T15:55:33.507Z,22.15
2024-05-09T15:58:01.109Z,22.32
2024-05-09T16:00:36.453Z,22.49
2024-05-09T16:03:06.769Z,22.48
2024-05-09T16:05:33.691Z,22.36
2024-05-09T16:08:00.417Z,22.40
2024-05-09T16:10:32.378Z,22.44
2024-05-09T16:13:01.143Z,22.39
2024-05-09T16:15:27.852Z,22.72
2024-05-09T16:17:57.467Z,22.64
2024-05-09T16:22:54.270Z,22.33
2024-05-09T16:25:20.703Z,22.51
2024-05-09T16:27:47.411Z,22.51
2024-05-09T16:30:21.315Z,22.55
2024-05-09T16:32:54.856Z,22.68
2024-05-09T16:35:21.668Z,22.74
2024-05-09T16:37:48.322Z,22.64
2024-05-09T16:40:22.175Z,22.70
2024-05-09T16:42:56.637Z,22.96
2024-05-09T16:45:23.705Z,23.18
2024-05-09T16:47:50.459Z,23.69
2024-05-09T16:50:25.715Z,23.52
2024-05-09T16:52:55.668Z,23.40
2024-05-09T16:55:22.291Z,23.42
2024-05-09T16:57:49.284Z,23.20
2024-05-09T17:00:25.243Z,23.33
2024-05-09T17:02:58.173Z,23.60
2024-05-09T17:05:24.785Z,23.74
2024-05-09T17:07:51.495Z,23.95
2024-05-09T17:10:26.518Z,24.31
2024-05-09T17:12:58.601Z,24.53
2024-05-09T17:15:25.528Z,24.48
2024-05-09T17:17:52.472Z,24.57
2024-05-09T17:20:26.110Z,24.75
2024-05-09T17:22:59.173Z,25.03
2024-05-09T17:25:25.736Z,25.23
2024-05-09T17:27:52.330Z,25.21
2024-05-09T17:30:28.488Z,25.31
2024-05-09T17:32:59.420Z,25.34
2024-05-09T17:35:26.004Z,25.59
2024-05-09T17:37:52.517Z,25.83
2024-05-09T17:40:27.425Z,25.89
2024-05-09T17:42:59.332Z,25.83
2024-05-09T17:45:25.826Z,26.21
2024-05-09T17:47:52.440Z,26.35
2024-05-09T17:50:27.276Z,26.67
2024-05-09T17:53:00.525Z,27.15
2024-05-09T17:55:27.690Z,27.48
2024-05-09T17:57:54.363Z,28.06
2024-05-09T18:00:29.289Z,28.61
2024-05-09T18:03:04.325Z,29.06
2024-05-09T18:05:33.580Z,29.04
2024-05-09T18:08:00.411Z,29.33
2024-05-09T18:10:33.751Z,29.18
2024-05-09T18:13:07.525Z,29.36
2024-05-09T18:15:34.281Z,29.79
2024-05-09T18:18:02.128Z,30.15
2024-05-09T18:20:37.976Z,30.52
2024-05-09T18:23:10.434Z,24.31
2024-05-09T18:25:37.032Z,30.96
2024-05-09T18:28:04.022Z,31.21
2024-05-09T18:30:35.004Z,31.48
2024-05-09T18:33:05.121Z,31.61
2024-05-09T18:35:32.893Z,31.51
2024-05-09T18:37:59.516Z,31.88
2024-05-09T18:40:32.955Z,31.97
2024-05-09T18:43:04.150Z,32.08
2024-05-09T18:45:31.114Z,32.97
2024-05-09T18:47:57.980Z,32.81
2024-05-09T18:50:32.510Z,32.80
2024-05-09T18:53:06.048Z,33.28
2024-05-09T18:55:33.401Z,33.51
2024-05-09T18:58:00.057Z,33.77
2024-05-09T19:00:33.811Z,34.02
2024-05-09T19:03:04.672Z,34.32
2024-05-09T19:05:32.185Z,34.53
2024-05-09T19:07:59.418Z,34.80
2024-05-09T19:10:32.009Z,35.36
2024-05-09T19:13:01.614Z,35.52
2024-05-09T19:15:28.919Z,35.57
2024-05-09T19:17:55.761Z,35.49
2024-05-09T19:20:28.629Z,35.58
2024-05-09T19:23:00.558Z,35.77
2024-05-09T19:25:27.083Z,35.88
2024-05-09T19:27:54.964Z,35.95
2024-05-09T19:30:33.018Z,36.23
2024-05-09T19:33:06.024Z,36.24
2024-05-09T19:35:32.975Z,36.26
2024-05-09T19:37:59.885Z,36.30
2024-05-09T19:40:31.404Z,36.52
2024-05-09T19:43:01.485Z,36.92
2024-05-09T19:45:28.793Z,37.18
2024-05-09T19:47:55.779Z,37.16
2024-05-09T19:50:30.997Z,37.15
2024-05-09T19:53:04.033Z,37.12
2024-05-09T19:55:30.534Z,37.17
2024-05-09T19:57:57.885Z,37.25
2024-05-09T20:00:32.647Z,37.39
2024-05-09T20:03:03.001Z,37.61
2024-05-09T20:05:32.805Z,37.57
2024-05-09T20:08:00.539Z,37.91
2024-05-09T20:10:32.173Z,38.01
2024-05-09T20:13:01.465Z,38.09
2024-05-09T20:15:28.199Z,38.31
2024-05-09T20:17:55.278Z,38.87
2024-05-09T20:20:33.044Z,39.12
2024-05-09T20:23:06.125Z,39.67
2024-05-09T20:25:32.945Z,39.96
2024-05-09T20:27:59.694Z,39.94
2024-05-09T20:30:32.150Z,39.93
2024-05-09T20:33:04.042Z,40.07
2024-05-09T20:35:32.446Z,40.25
2024-05-09T20:38:01.632Z,40.59
2024-05-09T20:40:33.856Z,40.65
2024-05-09T20:43:04.434Z,40.72
2024-05-09T20:45:31.412Z,40.65
2024-05-09T20:48:00.627Z,40.83
2024-05-09T20:50:36.163Z,40.97
2024-05-09T20:53:09.221Z,41.25
2024-05-09T20:55:36.454Z,41.54
2024-05-09T20:58:03.256Z,42.01
2024-05-09T21:00:38.868Z,42.36
2024-05-09T21:03:09.019Z,53.93
2024-05-09T21:05:36.005Z,-1.00
2024-05-09T21:08:03.034Z,-1.00
2024-05-09T21:10:33.202Z,43.02
2024-05-09T21:13:01.672Z,43.35
2024-05-09T21:15:28.738Z,43.44
2024-05-09T21:17:55.369Z,43.64
2024-05-09T21:20:28.679Z,43.83
2024-05-09T21:22:58.177Z,44.37
2024-05-09T21:25:25.581Z,44.91
2024-05-09T21:27:52.523Z,45.13
2024-05-09T21:30:31.227Z,45.23
2024-05-09T21:33:05.696Z,45.52
2024-05-09T21:35:32.301Z,45.17
2024-05-09T21:37:58.789Z,45.42
2024-05-09T21:40:31.642Z,45.48
2024-05-09T21:43:01.503Z,45.88
2024-05-09T21:45:28.195Z,46.09
2024-05-09T21:47:54.842Z,46.11
2024-05-09T21:50:28.065Z,46.03
2024-05-09T21:52:59.200Z,45.93
2024-05-09T21:55:25.714Z,45.99
2024-05-09T21:57:52.191Z,46.43
2024-05-09T22:00:28.629Z,46.71
2024-05-09T22:03:01.996Z,46.81
2024-05-09T22:05:28.729Z,46.78
2024-05-09T22:07:55.895Z,46.85
2024-05-09T22:10:26.559Z,46.71
2024-05-09T22:12:59.085Z,46.57
2024-05-09T22:15:25.675Z,46.59
2024-05-09T22:17:52.165Z,46.61
2024-05-09T22:20:25.969Z,46.65
2024-05-09T22:23:00.742Z,46.73
2024-05-09T22:25:30.478Z,47.08
2024-05-09T22:27:57.511Z,47.52
2024-05-09T22:30:32.053Z,47.44
2024-05-09T22:33:03.508Z,47.20
2024-05-09T22:35:30.094Z,47.11
2024-05-09T22:37:56.453Z,47.18
2024-05-09T22:40:32.216Z,47.36
2024-05-09T22:43:05.825Z,47.40
2024-05-09T22:45:32.720Z,47.35
2024-05-09T22:47:59.641Z,47.40
2024-05-09T22:50:30.531Z,47.30
2024-05-09T22:52:59.010Z,47.55
2024-05-09T22:55:25.654Z,47.80
2024-05-09T22:57:52.188Z,48.13
2024-05-09T23:02:52.744Z,61.45
2024-05-09T23:05:19.284Z,51.19
2024-05-09T23:07:45.758Z,49.94
2024-05-09T23:10:17.198Z,49.61
2024-05-09T23:12:48.666Z,49.11
2024-05-09T23:15:15.107Z,49.15
2024-05-09T23:17:45.136Z,49.12
2024-05-09T23:20:14.485Z,49.11
2024-05-09T23:22:41.142Z,49.14
2024-05-09T23:25:07.552Z,49.13
2024-05-09T23:27:34.053Z,49.29
2024-05-09T23:30:00.707Z,49.48
2024-05-09T23:32:27.423Z,49.80
2024-05-09T23:34:54.139Z,50.38
2024-05-09T23:37:20.968Z,50.54
2024-05-09T23:39:47.609Z,50.49
2024-05-09T23:42:14.413Z,50.52
2024-05-09T23:44:41.016Z,50.51
2024-05-09T23:47:10.599Z,50.37
2024-05-09T23:49:37.415Z,50.16
2024-05-09T23:52:04.873Z,50.11
2024-05-09T23:54:31.324Z,50.30
2024-05-09T23:56:57.749Z,50.55
2024-05-09T23:59:24.107Z,50.44
